Time;durP1;ratioP1;P1;durP2;ratioP2;P2;SDS_P1;SDS_P2;PMS_P1;PMS_P2;Temp;Humidity;BMP_temperature;BMP_pressure;BME280_temperature;BME280_humidity;BME280_pressure;Samples;Min_cycle;Max_cycle;Signal;HPM_P1;HPM_P2
2023/08/25 00:01:15;;;;;;;12.07;8.57;;;;;;;19.11;100.00;100854.56;5097917;28;20036;-53
2023/08/25 00:03:40;;;;;;;8.07;7.28;;;;;;;19.13;100.00;100863.31;5099920;28;20075;-52
2023/08/25 00:06:05;;;;;;;10.90;7.72;;;;;;;19.11;100.00;100865.34;5102027;28;20097;-55
2023/08/25 00:08:31;;;;;;;10.25;7.82;;;;;;;19.05;100.00;100861.47;5099644;28;20061;-54
2023/08/25 00:10:56;;;;;;;12.30;8.05;;;;;;;19.03;100.00;100856.28;5101391;28;20445;-53
2023/08/25 00:13:21;;;;;;;8.75;7.93;;;;;;;19.01;100.00;100863.66;5096510;28;20032;-54
2023/08/25 00:15:49;;;;;;;9.68;8.18;;;;;;;19.01;100.00;100863.66;5099218;28;20115;-53
2023/08/25 00:18:14;;;;;;;9.25;7.88;;;;;;;19.00;100.00;100856.63;5098388;28;20017;-53
2023/08/25 00:20:41;;;;;;;10.48;8.48;;;;;;;18.99;100.00;100867.56;5100307;28;20031;-54
2023/08/25 00:23:06;;;;;;;10.95;8.50;;;;;;;18.97;100.00;100867.72;5099396;28;20021;-51
2023/08/25 00:25:31;;;;;;;9.13;8.00;;;;;;;18.94;100.00;100869.94;5102191;28;20084;-52
2023/08/25 00:27:57;;;;;;;12.57;8.50;;;;;;;18.92;100.00;100864.72;5094298;28;20025;-52
2023/08/25 00:30:22;;;;;;;10.48;8.02;;;;;;;18.92;100.00;100856.66;5101510;28;20523;-52
2023/08/25 00:32:47;;;;;;;9.88;8.00;;;;;;;18.93;100.00;100871.75;5105119;28;20442;-54
2023/08/25 00:35:13;;;;;;;9.05;8.13;;;;;;;18.89;100.00;100873.13;5097199;28;20027;-53
2023/08/25 00:37:38;;;;;;;8.65;7.75;;;;;;;18.89;100.00;100880.38;5094180;28;20036;-52
2023/08/25 00:40:04;;;;;;;10.82;8.45;;;;;;;18.82;100.00;100872.13;5101044;28;20061;-55
2023/08/25 00:42:29;;;;;;;9.73;8.82;;;;;;;18.80;100.00;100874.13;5096503;28;20024;-51
2023/08/25 00:44:55;;;;;;;10.77;8.63;;;;;;;18.76;100.00;100876.31;5096728;28;20076;-52
2023/08/25 00:47:20;;;;;;;9.13;8.20;;;;;;;18.76;100.00;100878.16;5096899;28;20036;-55
2023/08/25 00:49:47;;;;;;;9.85;8.30;;;;;;;18.75;100.00;100877.34;5099439;28;20780;-52
2023/08/25 00:52:15;;;;;;;9.20;8.20;;;;;;;18.72;100.00;100871.44;5097653;28;20103;-50
2023/08/25 00:54:41;;;;;;;11.05;8.38;;;;;;;18.70;100.00;100868.91;5103886;28;20028;-52
2023/08/25 00:57:07;;;;;;;12.15;8.90;;;;;;;18.66;100.00;100857.66;5100501;28;20047;-52
2023/08/25 00:59:33;;;;;;;9.38;8.55;;;;;;;18.63;100.00;100863.38;5100168;28;20055;-51
2023/08/25 01:01:58;;;;;;;10.43;7.97;;;;;;;18.63;100.00;100862.53;5099470;28;20035;-53
2023/08/25 01:04:23;;;;;;;12.35;9.45;;;;;;;18.64;100.00;100864.22;5101667;28;20062;-52
2023/08/25 01:06:49;;;;;;;11.63;8.80;;;;;;;18.64;100.00;100864.22;5101022;28;20409;-52
2023/08/25 01:09:15;;;;;;;10.27;9.13;;;;;;;18.65;100.00;100869.44;5106179;28;20055;-52
2023/08/25 01:11:57;;;;;;;10.82;9.15;;;;;;;18.61;100.00;100868.09;5096155;28;20040;-53
2023/08/25 01:14:36;;;;;;;10.73;8.98;;;;;;;18.62;100.00;100867.09;5092728;28;20054;-54
2023/08/25 01:17:09;;;;;;;11.95;9.65;;;;;;;18.58;100.00;100863.03;5096762;28;20043;-52
2023/08/25 01:19:35;;;;;;;11.18;8.80;;;;;;;18.58;100.00;100854.97;5094023;28;20066;-52
2023/08/25 01:22:05;;;;;;;14.30;9.55;;;;;;;18.59;100.00;100859.34;5096644;28;20032;-52
2023/08/25 01:24:35;;;;;;;12.55;8.77;;;;;;;18.57;100.00;100850.63;5101187;28;20028;-52
2023/08/25 01:27:01;;;;;;;11.75;9.10;;;;;;;18.56;100.00;100857.00;5097986;28;20454;-51
2023/08/25 01:29:27;;;;;;;10.35;9.10;;;;;;;18.55;100.00;100854.47;5093533;28;20033;-52
2023/08/25 01:31:52;;;;;;;10.18;8.98;;;;;;;18.52;100.00;100854.81;5103812;28;20045;-51
2023/08/25 01:34:18;;;;;;;8.90;8.00;;;;;;;18.48;100.00;100841.72;5093983;28;20078;-52
2023/08/25 01:36:53;;;;;;;10.32;8.50;;;;;;;18.48;100.00;100841.72;5092212;28;20044;-51
2023/08/25 01:39:19;;;;;;;9.68;8.77;;;;;;;18.48;100.00;100857.00;5096811;28;20446;-52
2023/08/25 01:42:02;;;;;;;9.45;8.18;;;;;;;18.47;100.00;100845.41;5102816;28;20077;-52
2023/08/25 01:44:28;;;;;;;9.57;8.57;;;;;;;18.50;100.00;100849.59;5099170;28;20369;-51
2023/08/25 01:46:58;;;;;;;9.00;8.20;;;;;;;18.48;100.00;100843.56;5100013;28;20034;-52
2023/08/25 01:49:24;;;;;;;9.20;8.30;;;;;;;18.50;100.00;100844.22;5101126;28;20092;-52
2023/08/25 01:51:49;;;;;;;14.77;9.38;;;;;;;18.49;100.00;100839.88;5099586;28;20054;-52
2023/08/25 01:54:15;;;;;;;13.93;10.63;;;;;;;18.51;100.00;100851.28;5100678;28;20055;-52
2023/08/25 01:56:40;;;;;;;12.48;10.13;;;;;;;18.50;100.00;100836.16;5098008;28;20030;-52
2023/08/25 01:59:05;;;;;;;12.82;10.13;;;;;;;18.53;100.00;100829.59;5105645;28;20293;-52
2023/08/25 02:01:31;;;;;;;11.55;10.35;;;;;;;18.52;100.00;100833.28;5107474;28;20024;-51
2023/08/25 02:03:57;;;;;;;13.05;10.55;;;;;;;18.53;100.00;100832.28;5097632;28;20354;-51
2023/08/25 02:06:22;;;;;;;10.05;9.05;;;;;;;18.55;100.00;100832.97;5102530;28;20446;-51
2023/08/25 02:08:47;;;;;;;11.15;10.05;;;;;;;18.57;100.00;100830.94;5100652;28;20115;-53
2023/08/25 02:11:13;;;;;;;11.52;10.38;;;;;;;18.57;100.00;100830.94;5103550;28;20079;-51
2023/08/25 02:13:38;;;;;;;12.05;10.70;;;;;;;18.58;100.00;100827.25;5102903;28;20059;-51
2023/08/25 02:16:04;;;;;;;13.65;10.77;;;;;;;18.59;100.00;100824.38;5101727;28;20342;-52
2023/08/25 02:18:29;;;;;;;11.35;10.18;;;;;;;18.61;100.00;100825.03;5101694;28;20514;-53
2023/08/25 02:20:56;;;;;;;11.25;10.10;;;;;;;18.62;100.00;100824.06;5102334;28;20023;-52
2023/08/25 02:23:21;;;;;;;12.43;11.13;;;;;;;18.60;100.00;100820.69;5101966;28;20462;-52
2023/08/25 02:25:47;;;;;;;14.40;10.82;;;;;;;18.61;100.00;100819.66;5103362;28;20032;-53
2023/08/25 02:28:12;;;;;;;12.48;11.18;;;;;;;18.63;100.00;100820.31;5099956;28;20032;-51
2023/08/25 02:30:37;;;;;;;13.27;11.85;;;;;;;18.66;100.00;100811.09;5102708;28;20024;-51
2023/08/25 02:33:03;;;;;;;14.55;12.13;;;;;;;18.66;100.00;100811.91;5101624;28;20080;-51
2023/08/25 02:35:28;;;;;;;14.95;13.45;;;;;;;18.67;100.00;100810.91;5096405;28;20032;-52
2023/08/25 02:38:05;;;;;;;14.63;13.07;;;;;;;18.70;100.00;100798.13;5101476;28;20449;-51
2023/08/25 02:40:31;;;;;;;16.67;14.10;;;;;;;18.74;100.00;100791.41;5106782;28;20031;-52
2023/08/25 02:43:02;;;;;;;16.27;14.68;;;;;;;18.74;100.00;100794.94;5098228;28;20038;-52
2023/08/25 02:45:27;;;;;;;15.10;13.63;;;;;;;18.74;100.00;100791.41;5101684;28;20056;-52
2023/08/25 02:47:54;;;;;;;15.80;14.20;;;;;;;18.75;100.00;100785.84;5103644;28;20443;-55
2023/08/25 02:50:20;;;;;;;16.88;15.18;;;;;;;18.76;100.00;100782.13;5106277;28;20178;-55
2023/08/25 02:52:46;;;;;;;18.15;16.35;;;;;;;18.77;100.00;100775.75;5101868;28;20378;-55
2023/08/25 02:55:16;;;;;;;17.75;15.95;;;;;;;18.80;100.00;100777.25;5103085;28;20043;-54
2023/08/25 02:57:41;;;;;;;18.02;16.27;;;;;;;18.79;100.00;100776.41;5100024;28;20024;-54
2023/08/25 03:00:09;;;;;;;18.80;16.55;;;;;;;18.80;100.00;100775.41;5100943;28;20039;-55
2023/08/25 03:02:34;;;;;;;19.02;17.23;;;;;;;18.80;100.00;100771.88;5098835;28;20032;-56
2023/08/25 03:04:59;;;;;;;20.52;18.35;;;;;;;18.82;100.00;100767.16;5102329;28;20038;-53
2023/08/25 03:07:25;;;;;;;20.98;18.77;;;;;;;18.83;100.00;100763.47;5102343;28;20024;-55
2023/08/25 03:09:50;;;;;;;19.42;17.30;;;;;;;18.83;100.00;100756.22;5099190;28;20032;-55
2023/08/25 03:12:15;;;;;;;18.45;16.55;;;;;;;18.85;100.00;100756.94;5101722;28;20379;-54
2023/08/25 03:14:41;;;;;;;19.50;17.58;;;;;;;18.85;100.00;100759.63;5099815;28;20032;-52
2023/08/25 03:17:06;;;;;;;19.67;17.73;;;;;;;18.87;100.00;100762.13;5098144;28;20028;-51
2023/08/25 03:19:31;;;;;;;19.25;17.17;;;;;;;18.85;100.00;100754.22;5100482;28;20099;-52
2023/08/25 03:21:57;;;;;;;17.90;16.10;;;;;;;18.85;100.00;100750.69;5097885;28;20392;-52
2023/08/25 03:24:22;;;;;;;18.40;16.50;;;;;;;18.88;100.00;100744.97;5102353;28;20035;-52
2023/08/25 03:26:47;;;;;;;20.05;17.95;;;;;;;18.88;100.00;100739.56;5102052;28;20020;-53
2023/08/25 03:29:13;;;;;;;20.10;18.10;;;;;;;18.92;100.00;100740.06;5099549;28;20031;-52
2023/08/25 03:31:38;;;;;;;20.35;18.17;;;;;;;18.91;100.00;100739.22;5096749;28;20513;-52
2023/08/25 03:34:03;;;;;;;18.33;16.35;;;;;;;18.92;100.00;100738.22;5104810;28;20416;-52
2023/08/25 03:36:30;;;;;;;20.70;18.17;;;;;;;18.93;100.00;100739.88;5099207;28;20028;-52
2023/08/25 03:38:55;;;;;;;18.65;16.65;;;;;;;18.91;100.00;100733.84;5104752;28;20024;-51
2023/08/25 03:41:21;;;;;;;18.58;16.67;;;;;;;18.93;100.00;100729.13;5098472;28;20083;-51
2023/08/25 03:43:46;;;;;;;17.13;15.38;;;;;;;18.95;100.00;100715.50;5101714;28;20031;-52
2023/08/25 03:46:11;;;;;;;19.98;17.85;;;;;;;18.96;100.00;100709.94;5100666;28;20016;-51
2023/08/25 03:48:37;;;;;;;19.92;17.52;;;;;;;18.97;100.00;100711.63;5099298;28;20126;-51
2023/08/25 03:51:02;;;;;;;19.08;17.30;;;;;;;18.96;100.00;100719.88;5094663;28;20343;-53
2023/08/25 03:53:27;;;;;;;18.85;16.98;;;;;;;18.96;100.00;100723.38;5100486;28;20046;-53
2023/08/25 03:55:53;;;;;;;17.30;15.65;;;;;;;18.95;100.00;100724.44;5098516;28;20044;-52
2023/08/25 03:58:18;;;;;;;21.00;18.73;;;;;;;18.97;100.00;100721.56;5097150;28;20366;-52
2023/08/25 04:00:50;;;;;;;17.50;15.70;;;;;;;18.97;100.00;100719.69;5103585;28;20058;-52
2023/08/25 04:03:16;;;;;;;18.50;16.48;;;;;;;18.98;100.00;100724.03;5102788;28;20023;-52
2023/08/25 04:05:41;;;;;;;19.88;17.75;;;;;;;18.99;100.00;100720.34;5102809;28;20028;-51
2023/08/25 04:08:06;;;;;;;19.33;17.42;;;;;;;18.99;100.00;100720.34;5100454;28;20031;-51
2023/08/25 04:10:32;;;;;;;20.35;18.33;;;;;;;18.99;100.00;100716.84;5099801;28;20028;-50
2023/08/25 04:12:57;;;;;;;19.52;17.45;;;;;;;18.99;100.00;100717.66;5101694;28;20089;-51
2023/08/25 04:15:22;;;;;;;19.23;16.98;;;;;;;18.99;100.00;100719.53;5093129;28;20108;-52
2023/08/25 04:17:48;;;;;;;18.17;16.35;;;;;;;18.97;100.00;100711.63;5097191;28;20036;-51
2023/08/25 04:20:14;;;;;;;17.85;16.05;;;;;;;18.98;100.00;100715.16;5103235;28;20089;-54
2023/08/25 04:22:41;;;;;;;19.65;17.55;;;;;;;18.99;100.00;100711.44;5101174;28;20020;-51
2023/08/25 04:25:06;;;;;;;18.52;16.63;;;;;;;18.98;100.00;100707.91;5097833;28;20044;-51
2023/08/25 04:27:31;;;;;;;19.60;17.70;;;;;;;18.97;100.00;100703.53;5104919;28;20016;-51
2023/08/25 04:29:57;;;;;;;18.80;17.00;;;;;;;18.99;100.00;100706.06;5101906;28;20056;-54
2023/08/25 04:32:22;;;;;;;19.50;17.65;;;;;;;18.97;100.00;100713.47;5099952;28;20357;-53
2023/08/25 04:34:48;;;;;;;19.38;17.48;;;;;;;18.97;100.00;100713.47;5096598;28;20043;-52
2023/08/25 04:37:13;;;;;;;21.48;19.30;;;;;;;18.97;100.00;100711.63;5101211;28;20397;-52
2023/08/25 04:39:40;;;;;;;20.90;18.15;;;;;;;18.97;100.00;100711.63;5098158;28;20370;-53
2023/08/25 04:42:05;;;;;;;22.23;18.00;;;;;;;18.95;100.00;100708.28;5101615;28;20031;-52
2023/08/25 04:44:31;;;;;;;18.77;16.83;;;;;;;18.97;100.00;100722.38;5102087;28;20506;-54
2023/08/25 04:46:56;;;;;;;22.38;19.98;;;;;;;18.98;100.00;100718.66;5095773;28;20027;-55
2023/08/25 04:49:21;;;;;;;18.77;16.80;;;;;;;18.97;100.00;100719.69;5098468;28;20059;-53
2023/08/25 04:51:46;;;;;;;20.05;17.92;;;;;;;19.00;100.00;100705.03;5094314;28;20051;-55
2023/08/25 04:54:12;;;;;;;20.77;18.58;;;;;;;18.98;100.00;100713.28;5096819;28;20038;-53
2023/08/25 04:56:37;;;;;;;21.42;19.23;;;;;;;18.99;100.00;100700.69;5100863;28;20028;-55
2023/08/25 04:59:03;;;;;;;19.83;17.75;;;;;;;19.00;100.00;100695.13;5090916;28;20447;-52
2023/08/25 05:01:28;;;;;;;23.50;20.15;;;;;;;18.99;100.00;100695.31;5095935;28;20023;-55
2023/08/25 05:03:55;;;;;;;20.95;18.75;;;;;;;19.01;100.00;100693.25;5092162;28;20055;-55
2023/08/25 05:06:21;;;;;;;21.85;19.75;;;;;;;19.03;100.00;100688.53;5098164;28;20081;-55
2023/08/25 05:08:46;;;;;;;21.95;19.35;;;;;;;19.01;100.00;100682.50;5093799;28;20032;-51
2023/08/25 05:11:12;;;;;;;21.27;19.02;;;;;;;19.02;100.00;100679.63;5102882;28;20112;-53
2023/08/25 05:13:37;;;;;;;22.05;19.67;;;;;;;19.02;100.00;100697.66;5096099;28;20055;-54
2023/08/25 05:16:02;;;;;;;22.60;19.50;;;;;;;19.02;100.00;100695.78;5097249;28;20412;-52
2023/08/25 05:18:28;;;;;;;26.27;21.63;;;;;;;19.03;100.00;100688.53;5098282;28;20539;-55
2023/08/25 05:21:00;;;;;;;21.55;19.35;;;;;;;19.05;100.00;100691.88;5100084;28;20084;-53
2023/08/25 05:23:26;;;;;;;20.85;18.73;;;;;;;19.08;100.00;100693.41;5103658;28;20088;-55
2023/08/25 05:25:51;;;;;;;20.35;18.35;;;;;;;19.09;100.00;100690.53;5099464;28;20463;-52
2023/08/25 05:28:17;;;;;;;20.63;18.40;;;;;;;19.08;100.00;100690.69;5103858;28;20392;-52
2023/08/25 05:30:46;;;;;;;21.55;19.17;;;;;;;19.09;100.00;100709.38;5097059;28;20093;-52
2023/08/25 05:33:11;;;;;;;19.70;17.27;;;;;;;19.11;100.00;100711.88;5103045;28;20093;-54
2023/08/25 05:35:37;;;;;;;18.92;16.92;;;;;;;19.13;100.00;100702.59;5104813;28;20032;-51
2023/08/25 05:38:03;;;;;;;19.63;17.52;;;;;;;19.18;100.00;100691.31;5103282;28;20099;-55
2023/08/25 05:40:28;;;;;;;16.00;13.75;;;;;;;19.18;100.00;100686.75;5104278;28;20027;-53
2023/08/25 05:42:54;;;;;;;16.33;14.05;;;;;;;19.22;100.00;100684.56;5102198;28;20028;-55
2023/08/25 05:45:19;;;;;;;15.18;12.27;;;;;;;19.23;100.00;100679.00;5099408;28;20407;-51
2023/08/25 05:47:45;;;;;;;12.80;11.50;;;;;;;19.24;100.00;100679.84;5104629;28;20040;-51
2023/08/25 05:50:10;;;;;;;11.70;10.50;;;;;;;19.25;100.00;100676.09;5098245;28;20536;-53
2023/08/25 05:52:36;;;;;;;10.85;8.82;;;;;;;19.26;100.00;100674.28;5106030;28;20028;-54
2023/08/25 05:55:01;;;;;;;12.52;9.32;;;;;;;19.27;100.00;100675.94;5098805;28;20035;-53
2023/08/25 05:57:27;;;;;;;10.05;8.40;;;;;;;19.26;100.00;100669.72;5094449;28;20174;-54
2023/08/25 05:59:52;;;;;;;9.13;8.13;;;;;;;19.25;100.00;100670.72;5093762;28;20118;-54
2023/08/25 06:02:17;;;;;;;13.38;8.32;;;;;;;19.26;100.00;100668.88;5096509;28;20059;-51
2023/08/25 06:04:43;;;;;;;12.07;8.40;;;;;;;19.24;100.00;100671.75;5093873;28;20497;-52
2023/08/25 06:07:08;;;;;;;11.98;7.95;;;;;;;19.23;100.00;100654.78;5096866;27;20487;-50
2023/08/25 06:09:34;;;;;;;12.45;7.68;;;;;;;19.23;100.00;100660.16;5101143;27;20036;-51
2023/08/25 06:11:59;;;;;;;11.38;8.32;;;;;;;19.23;100.00;100662.84;5101862;28;20035;-53
2023/08/25 06:14:25;;;;;;;9.60;8.23;;;;;;;19.26;100.00;100658.94;5099674;28;20059;-53
2023/08/25 06:16:50;;;;;;;14.13;7.82;;;;;;;19.24;100.00;100669.06;5097649;28;20032;-53
2023/08/25 06:19:16;;;;;;;9.63;7.80;;;;;;;19.23;100.00;100664.69;5101609;28;20084;-51
2023/08/25 06:21:41;;;;;;;9.13;7.43;;;;;;;19.21;100.00;100675.63;5097041;28;20039;-52
2023/08/25 06:24:07;;;;;;;8.45;7.47;;;;;;;19.18;100.00;100683.22;5101438;28;20020;-51
2023/08/25 06:26:33;;;;;;;10.10;7.63;;;;;;;19.13;100.00;100681.06;5101037;28;20106;-51
2023/08/25 06:28:59;;;;;;;11.20;7.90;;;;;;;19.10;100.00;100697.59;5102304;28;20023;-53
2023/08/25 06:31:24;;;;;;;9.70;7.22;;;;;;;19.08;100.00;100680.75;5101649;28;20073;-51
2023/08/25 06:33:50;;;;;;;10.82;7.18;;;;;;;19.08;100.00;100690.69;5099321;28;20534;-52
2023/08/25 06:36:15;;;;;;;15.77;8.52;;;;;;;19.11;100.00;100687.66;5102523;28;20038;-52
2023/08/25 06:38:41;;;;;;;11.50;7.47;;;;;;;19.12;100.00;100686.63;5103375;28;20381;-52
2023/08/25 06:41:06;;;;;;;14.50;8.68;;;;;;;19.15;100.00;100681.75;5102092;28;20063;-52
2023/08/25 06:43:32;;;;;;;10.73;7.80;;;;;;;19.13;100.00;100674.84;5102620;28;20416;-52
2023/08/25 06:45:57;;;;;;;11.57;7.90;;;;;;;19.16;100.00;100686.09;5100684;28;20050;-55
2023/08/25 06:48:23;;;;;;;9.70;7.97;;;;;;;19.16;100.00;100683.41;5104471;28;20019;-54
2023/08/25 06:50:48;;;;;;;11.13;8.00;;;;;;;19.14;100.00;100663.06;5096740;28;20044;-52
2023/08/25 06:53:13;;;;;;;10.10;8.10;;;;;;;19.12;100.00;100651.63;5098800;28;20055;-52
2023/08/25 06:55:39;;;;;;;12.85;7.72;;;;;;;19.12;100.00;100647.09;5101619;28;20024;-52
2023/08/25 06:58:06;;;;;;;12.02;8.23;;;;;;;19.11;100.00;100620.34;5099804;28;20392;-55
2023/08/25 07:00:32;;;;;;;11.13;8.55;;;;;;;19.07;100.00;100611.81;5104125;28;20016;-54
2023/08/25 07:02:57;;;;;;;11.80;8.30;;;;;;;19.07;100.00;100601.03;5094755;28;20020;-52
2023/08/25 07:05:23;;;;;;;9.85;8.85;;;;;;;19.04;100.00;100620.25;5103366;28;20384;-52
2023/08/25 07:07:51;;;;;;;11.23;8.32;;;;;;;19.02;100.00;100625.78;5099177;28;20096;-52
2023/08/25 07:10:17;;;;;;;10.80;7.88;;;;;;;18.98;100.00;100632.53;5104243;28;20028;-52
2023/08/25 07:12:42;;;;;;;10.63;8.52;;;;;;;18.96;100.00;100631.06;5091590;28;20039;-54
2023/08/25 07:15:09;;;;;;;11.98;8.32;;;;;;;18.96;100.00;100606.84;5103148;28;20483;-55
2023/08/25 07:17:34;;;;;;;11.80;8.45;;;;;;;18.94;100.00;100612.38;5095654;28;20521;-53
2023/08/25 07:20:00;;;;;;;11.82;9.38;;;;;;;18.91;100.00;100641.53;5100807;28;20161;-52
2023/08/25 07:22:25;;;;;;;14.23;10.23;;;;;;;18.88;100.00;100711.84;5094989;28;20434;-52
2023/08/25 07:24:53;;;;;;;14.50;9.02;;;;;;;18.85;100.00;100774.91;5099874;27;20474;-52
2023/08/25 07:27:19;;;;;;;24.55;10.57;;;;;;;18.80;100.00;100758.41;5088043;28;20028;-54
2023/08/25 07:29:45;;;;;;;17.70;10.43;;;;;;;18.76;100.00;100679.06;5091537;28;20028;-55
2023/08/25 07:32:10;;;;;;;14.98;9.50;;;;;;;18.70;100.00;100669.81;5098829;28;20027;-53
2023/08/25 07:34:36;;;;;;;10.40;8.50;;;;;;;18.67;100.00;100670.19;5102536;28;20030;-55
2023/08/25 07:37:01;;;;;;;12.00;9.00;;;;;;;18.70;100.00;100695.91;5092452;28;20035;-54
2023/08/25 07:39:27;;;;;;;11.10;8.95;;;;;;;18.74;100.00;100711.53;5093120;28;20059;-52
2023/08/25 07:41:52;;;;;;;13.73;8.30;;;;;;;18.74;100.00;100698.06;5091993;28;20024;-51
2023/08/25 07:44:17;;;;;;;12.05;8.70;;;;;;;18.79;100.00;100711.00;5095948;28;20051;-52
2023/08/25 07:46:43;;;;;;;12.18;8.85;;;;;;;18.79;100.00;100694.88;5099418;28;20027;-52
2023/08/25 07:49:08;;;;;;;11.07;8.73;;;;;;;18.77;100.00;100715.69;5094869;28;20040;-51
2023/08/25 07:51:37;;;;;;;11.35;9.02;;;;;;;18.70;100.00;100702.09;5101621;28;20027;-52
2023/08/25 07:54:02;;;;;;;13.15;8.60;;;;;;;18.66;100.00;100700.78;5092417;28;20492;-52
2023/08/25 07:56:28;;;;;;;12.57;9.60;;;;;;;18.65;100.00;100704.47;5099580;28;20023;-53
2023/08/25 07:58:53;;;;;;;14.32;9.65;;;;;;;18.66;100.00;100700.78;5091583;28;20102;-51
2023/08/25 08:01:19;;;;;;;10.13;8.00;;;;;;;18.67;100.00;100697.09;5101465;28;20016;-50
2023/08/25 08:03:45;;;;;;;10.85;8.48;;;;;;;18.68;100.00;100696.94;5098209;28;20114;-51
2023/08/25 08:06:10;;;;;;;13.20;9.15;;;;;;;18.72;100.00;100707.31;5090280;28;20562;-51
2023/08/25 08:08:36;;;;;;;9.80;8.80;;;;;;;18.73;100.00;100714.38;5098429;28;20030;-51
2023/08/25 08:11:01;;;;;;;9.65;8.52;;;;;;;18.72;100.00;100721.63;5100259;28;20381;-51
2023/08/25 08:13:27;;;;;;;11.93;8.68;;;;;;;18.70;100.00;100710.19;5099546;28;20035;-51
2023/08/25 08:15:52;;;;;;;11.10;8.85;;;;;;;18.72;100.00;100704.63;5099593;28;20031;-49
2023/08/25 08:18:17;;;;;;;12.05;8.82;;;;;;;18.72;100.00;100713.56;5098671;28;20034;-50
2023/08/25 08:20:43;;;;;;;12.52;9.30;;;;;;;18.71;100.00;100700.28;5098741;28;20065;-51
2023/08/25 08:23:09;;;;;;;10.65;8.80;;;;;;;18.67;100.00;100679.09;5093513;28;20066;-50
2023/08/25 08:25:36;;;;;;;10.80;9.45;;;;;;;18.63;100.00;100680.44;5098546;28;20111;-51
2023/08/25 08:28:02;;;;;;;12.15;8.80;;;;;;;18.62;100.00;100694.09;5092554;28;20076;-51
2023/08/25 08:30:27;;;;;;;11.30;9.70;;;;;;;18.60;100.00;100696.09;5095455;28;20024;-52
2023/08/25 08:32:53;;;;;;;12.82;9.52;;;;;;;18.59;100.00;100672.94;5093328;28;20071;-50
2023/08/25 08:35:18;;;;;;;11.68;10.18;;;;;;;18.62;100.00;100688.72;5096728;28;20102;-51
2023/08/25 08:37:43;;;;;;;13.70;10.88;;;;;;;18.63;100.00;100704.66;5095781;28;20427;-51
2023/08/25 08:40:09;;;;;;;12.73;11.43;;;;;;;18.66;100.00;100708.88;5097818;28;20469;-50
2023/08/25 08:42:36;;;;;;;11.57;10.25;;;;;;;18.62;100.00;100705.69;5097048;28;20124;-54
2023/08/25 08:45:04;;;;;;;12.48;10.02;;;;;;;18.62;100.00;100708.38;5086558;28;20397;-53
2023/08/25 08:47:32;;;;;;;13.05;10.65;;;;;;;18.61;100.00;100706.69;5087179;28;20149;-51
2023/08/25 08:49:58;;;;;;;13.38;10.50;;;;;;;18.59;100.00;100706.03;5088551;28;20044;-50
2023/08/25 08:52:24;;;;;;;15.75;11.25;;;;;;;18.55;100.00;100715.47;5102331;28;20026;-51
2023/08/25 08:54:49;;;;;;;11.63;10.38;;;;;;;18.56;100.00;100722.50;5090816;28;20453;-51
2023/08/25 08:57:15;;;;;;;12.63;11.32;;;;;;;18.53;100.00;100722.03;5091812;28;20031;-51
2023/08/25 08:59:42;;;;;;;14.35;12.10;;;;;;;18.50;100.00;100717.81;5097741;28;20031;-51
2023/08/25 09:02:08;;;;;;;13.13;11.73;;;;;;;18.41;100.00;100708.09;5100013;28;20023;-51
2023/08/25 09:04:36;;;;;;;13.73;12.32;;;;;;;18.41;100.00;100698.19;5096017;28;20562;-51
2023/08/25 09:07:05;;;;;;;15.77;13.10;;;;;;;18.41;100.00;100686.59;5093114;28;20123;-51
2023/08/25 09:09:30;;;;;;;16.55;13.80;;;;;;;18.40;100.00;100707.28;5102573;28;20020;-53
2023/08/25 09:11:55;;;;;;;15.32;13.70;;;;;;;18.43;100.00;100738.34;5084319;28;20032;-52
2023/08/25 09:14:27;;;;;;;18.33;14.23;;;;;;;18.43;100.00;100738.34;5092607;28;20020;-55
2023/08/25 09:16:55;;;;;;;16.75;13.75;;;;;;;18.47;100.00;100699.34;5097633;28;20035;-55
2023/08/25 09:19:20;;;;;;;14.15;12.75;;;;;;;18.48;100.00;100684.88;5096983;28;20016;-52
2023/08/25 09:21:46;;;;;;;14.90;13.38;;;;;;;18.53;100.00;100669.06;5096578;28;20034;-54
2023/08/25 09:24:18;;;;;;;16.38;14.38;;;;;;;18.55;100.00;100672.44;5095056;28;20046;-54
2023/08/25 09:26:43;;;;;;;15.55;14.05;;;;;;;18.60;100.00;100679.97;5098627;28;21182;-53
2023/08/25 09:29:10;;;;;;;16.25;14.57;;;;;;;18.66;100.00;100706.16;5100639;28;20545;-54
2023/08/25 09:31:36;;;;;;;16.38;14.52;;;;;;;18.67;100.00;100710.56;5096235;28;20667;-52
2023/08/25 09:34:04;;;;;;;15.68;14.25;;;;;;;18.71;100.00;100708.34;5091957;28;20484;-53
2023/08/25 09:36:30;;;;;;;17.55;14.75;;;;;;;18.79;100.00;100706.44;5095635;28;20351;-53
2023/08/25 09:38:56;;;;;;;15.30;13.68;;;;;;;18.82;100.00;100706.09;5099259;28;20307;-51
2023/08/25 09:41:23;;;;;;;15.07;13.68;;;;;;;18.85;100.00;100697.72;5097835;28;20086;-50
2023/08/25 09:43:50;;;;;;;15.10;13.25;;;;;;;18.87;100.00;100692.16;5097241;28;20039;-52
2023/08/25 09:46:15;;;;;;;15.10;13.68;;;;;;;18.90;100.00;100690.97;5098441;28;20032;-52
2023/08/25 09:48:40;;;;;;;15.57;14.18;;;;;;;18.97;100.00;100705.41;5097699;27;20032;-53
2023/08/25 09:51:06;;;;;;;16.02;14.35;;;;;;;19.04;100.00;100709.06;5096714;28;20076;-51
2023/08/25 09:53:33;;;;;;;17.15;15.48;;;;;;;19.10;100.00;100705.69;5096152;28;20115;-53
2023/08/25 09:56:06;;;;;;;17.80;16.00;;;;;;;19.21;100.00;100701.72;5094233;28;20452;-51
2023/08/25 09:58:31;;;;;;;17.08;15.35;;;;;;;19.32;100.00;100701.31;5092612;28;20024;-51
2023/08/25 10:00:58;;;;;;;15.88;14.38;;;;;;;19.36;100.00;100696.41;5097753;28;20031;-51
2023/08/25 10:03:24;;;;;;;15.77;14.25;;;;;;;19.48;100.00;100702.22;5100774;28;20457;-51
2023/08/25 10:05:49;;;;;;;15.90;14.40;;;;;;;19.54;100.00;100699.66;5097071;28;20115;-51
2023/08/25 10:08:16;;;;;;;16.27;14.68;;;;;;;19.58;100.00;100700.97;5100491;28;20461;-52
2023/08/25 10:10:43;;;;;;;14.70;13.35;;;;;;;19.71;100.00;100702.22;5096395;28;20056;-51
2023/08/25 10:13:14;;;;;;;15.43;13.82;;;;;;;19.74;100.00;100700.00;5099214;28;20023;-50
2023/08/25 10:15:40;;;;;;;15.68;14.20;;;;;;;19.84;100.00;100709.72;5090929;28;20062;-51
2023/08/25 10:18:08;;;;;;;16.13;14.57;;;;;;;19.89;100.00;100715.41;5100395;28;20034;-51
2023/08/25 10:20:37;;;;;;;14.57;13.15;;;;;;;19.98;100.00;100710.78;5095756;28;20484;-53
2023/08/25 10:23:08;;;;;;;14.20;12.75;;;;;;;20.07;100.00;100707.00;5092803;28;20094;-53
2023/08/25 10:25:35;;;;;;;13.38;12.07;;;;;;;20.19;100.00;100705.50;5100058;28;20038;-53
2023/08/25 10:28:03;;;;;;;12.57;11.30;;;;;;;20.23;100.00;100711.38;5090322;28;20116;-52
2023/08/25 10:30:29;;;;;;;12.95;11.50;;;;;;;20.29;100.00;100718.72;5094852;28;20020;-55
2023/08/25 10:33:03;;;;;;;12.52;11.43;;;;;;;20.37;100.00;100707.84;5093747;27;20037;-54
2023/08/25 10:35:40;;;;;;;12.85;11.75;;;;;;;20.43;100.00;100706.25;5094766;28;20596;-54
2023/08/25 10:38:18;;;;;;;12.70;11.50;;;;;;;20.47;100.00;100719.22;5097299;28;20064;-55
2023/08/25 10:40:54;;;;;;;13.65;12.45;;;;;;;20.46;100.00;100720.22;5092245;28;20030;-53
2023/08/25 10:43:27;;;;;;;13.15;11.85;;;;;;;20.42;100.00;100728.88;5100904;28;20027;-51
2023/08/25 10:45:52;;;;;;;12.68;11.57;;;;;;;20.39;100.00;100729.25;5095981;28;20020;-52
2023/08/25 10:48:21;;;;;;;13.68;12.27;;;;;;;20.37;100.00;100724.03;5095970;28;20038;-53
2023/08/25 10:50:47;;;;;;;14.07;12.73;;;;;;;20.35;100.00;100718.00;5095377;28;20135;-53
2023/08/25 10:53:37;;;;;;;14.52;13.13;;;;;;;20.40;100.00;100712.03;5093536;28;20021;-53
2023/08/25 10:56:18;;;;;;;14.10;12.80;;;;;;;20.38;100.00;100720.31;5097534;28;20012;-55
2023/08/25 10:59:02;;;;;;;13.48;12.20;;;;;;;20.41;100.00;100717.25;5094282;28;20035;-54
2023/08/25 11:01:52;;;;;;;14.20;13.02;;;;;;;20.36;100.00;100708.03;5099603;28;20502;-52